Time;durP1;ratioP1;P1;durP2;ratioP2;P2;SDS_P1;SDS_P2;PMS_P1;PMS_P2;Temp;Humidity;BMP_temperature;BMP_pressure;BME280_temperature;BME280_humidity;BME280_pressure;Samples;Min_cycle;Max_cycle;Signal;HPM_P1;HPM_P2
2022/04/14 00:01:24;;;;;;;4.87;1.23;;;16.20;46.10;;;;;;2658851;52;20919;-83
2022/04/14 00:03:51;;;;;;;3.05;1.37;;;16.10;46.10;;;;;;2632207;51;22336;-83
2022/04/14 00:06:17;;;;;;;4.60;1.40;;;16.10;46.20;;;;;;2663003;52;20983;-82
2022/04/14 00:08:44;;;;;;;3.95;1.27;;;16.10;46.30;;;;;;2404719;53;20891;-83
2022/04/14 00:11:18;;;;;;;3.12;1.00;;;16.00;46.30;;;;;;2663381;52;20966;-82
2022/04/14 00:13:47;;;;;;;3.33;1.30;;;16.00;46.60;;;;;;2402657;52;20911;-82
2022/04/14 00:16:14;;;;;;;3.72;1.35;;;16.00;46.40;;;;;;2663045;52;20923;-81
2022/04/14 00:18:40;;;;;;;3.15;1.30;;;15.90;46.50;;;;;;2405086;53;20956;-81
2022/04/14 00:21:07;;;;;;;4.53;1.17;;;15.90;46.60;;;;;;2663341;52;20949;-81
2022/04/14 00:23:33;;;;;;;3.22;1.20;;;15.90;46.70;;;;;;2405003;52;20919;-82
2022/04/14 00:25:59;;;;;;;3.87;1.20;;;15.90;46.80;;;;;;2404612;52;20939;-81
2022/04/14 00:28:25;;;;;;;4.47;1.33;;;15.90;46.90;;;;;;2405192;52;20971;-82
2022/04/14 00:30:52;;;;;;;4.20;1.10;;;15.80;46.90;;;;;;2663564;52;20911;-84
2022/04/14 00:33:18;;;;;;;2.30;1.00;;;15.80;47.00;;;;;;2384671;52;20981;-84
2022/04/14 00:35:44;;;;;;;2.50;0.90;;;15.80;47.10;;;;;;2663382;52;21855;-84
2022/04/14 00:38:10;;;;;;;4.05;0.95;;;15.80;47.10;;;;;;2661506;52;21034;-84
2022/04/14 00:40:37;;;;;;;2.60;1.12;;;15.80;47.20;;;;;;2661428;52;20962;-85
2022/04/14 00:43:03;;;;;;;2.42;0.88;;;15.80;47.30;;;;;;2402732;52;21050;-85
2022/04/14 00:45:30;;;;;;;4.05;1.10;;;15.70;47.20;;;;;;2660947;52;20971;-82
2022/04/14 00:47:56;;;;;;;5.72;1.17;;;15.70;47.30;;;;;;2402932;53;21010;-82
2022/04/14 00:50:23;;;;;;;4.28;0.98;;;15.70;47.40;;;;;;2660825;52;21854;-83
2022/04/14 00:52:50;;;;;;;2.70;1.05;;;15.70;47.40;;;;;;2403663;52;20911;-81
2022/04/14 00:55:17;;;;;;;5.53;1.20;;;15.60;47.40;;;;;;2405165;52;20891;-82
2022/04/14 00:57:44;;;;;;;3.15;1.10;;;15.60;47.50;;;;;;2664955;52;20950;-82
2022/04/14 01:00:11;;;;;;;2.55;0.93;;;15.60;47.70;;;;;;2656611;51;21448;-82
2022/04/14 01:02:41;;;;;;;2.85;0.93;;;15.60;47.70;;;;;;2644128;51;20867;-83
2022/04/14 01:05:09;;;;;;;3.22;1.00;;;15.60;47.70;;;;;;2664607;52;20919;-82
2022/04/14 01:07:35;;;;;;;3.78;1.10;;;15.60;47.80;;;;;;2663836;52;20958;-81
2022/04/14 01:10:05;;;;;;;2.97;1.20;;;15.60;47.90;;;;;;2664145;52;20998;-82
2022/04/14 01:12:32;;;;;;;3.92;1.00;;;15.50;47.90;;;;;;2663640;52;21520;-82
2022/04/14 01:14:58;;;;;;;2.35;0.90;;;15.50;47.90;;;;;;2662743;52;20891;-82
2022/04/14 01:17:24;;;;;;;3.55;1.37;;;15.50;47.90;;;;;;2663616;52;20951;-82
2022/04/14 01:19:51;;;;;;;2.37;0.93;;;15.50;48.00;;;;;;2663304;52;20966;-81
2022/04/14 01:22:24;;;;;;;3.47;1.30;;;15.40;47.90;;;;;;2662934;52;20935;-81
2022/04/14 01:24:58;;;;;;;2.40;0.90;;;15.40;48.10;;;;;;2404587;53;21584;-81
2022/04/14 01:27:25;;;;;;;2.87;1.00;;;15.40;48.20;;;;;;2400409;52;21098;-84
2022/04/14 01:29:54;;;;;;;3.00;1.05;;;15.40;48.10;;;;;;2404674;52;20922;-85
2022/04/14 01:32:23;;;;;;;2.25;0.90;;;15.40;48.30;;;;;;2661135;52;20966;-84
2022/04/14 01:34:50;;;;;;;4.57;1.23;;;15.30;48.30;;;;;;2635971;51;21505;-84
2022/04/14 01:37:17;;;;;;;3.42;1.27;;;15.30;48.30;;;;;;2404182;53;21902;-84
2022/04/14 01:39:43;;;;;;;3.97;1.00;;;15.30;48.50;;;;;;2405242;52;21769;-85
2022/04/14 01:42:09;;;;;;;3.92;1.60;;;15.30;48.50;;;;;;2404840;52;21258;-84
2022/04/14 01:44:36;;;;;;;3.65;1.20;;;15.30;48.60;;;;;;2383836;53;20899;-84
2022/04/14 01:47:03;;;;;;;4.62;1.45;;;15.30;48.70;;;;;;2404574;52;20923;-84
2022/04/14 01:49:29;;;;;;;3.83;1.17;;;15.20;48.80;;;;;;2403626;52;21442;-84
2022/04/14 01:51:55;;;;;;;4.30;0.95;;;15.20;48.90;;;;;;2404467;53;20915;-84
2022/04/14 01:54:22;;;;;;;2.50;1.10;;;15.20;48.90;;;;;;2653882;51;20998;-84
2022/04/14 01:56:49;;;;;;;4.53;1.23;;;15.20;48.90;;;;;;2387746;53;21745;-84
2022/04/14 01:59:16;;;;;;;3.65;1.20;;;15.20;48.90;;;;;;2662980;52;20993;-84
2022/04/14 02:01:42;;;;;;;2.40;1.10;;;15.20;49.00;;;;;;2404813;53;21648;-84
2022/04/14 02:04:11;;;;;;;3.83;0.95;;;15.20;49.00;;;;;;2663620;52;21721;-85
2022/04/14 02:06:38;;;;;;;4.97;1.40;;;15.20;49.10;;;;;;2663442;52;21072;-84
2022/04/14 02:09:04;;;;;;;3.53;1.15;;;15.20;49.10;;;;;;2642979;51;20914;-84
2022/04/14 02:11:30;;;;;;;5.43;1.30;;;15.20;49.20;;;;;;2397387;52;20924;-85
2022/04/14 02:13:57;;;;;;;2.65;1.12;;;15.20;49.20;;;;;;2405164;52;20932;-84
2022/04/14 02:16:23;;;;;;;3.03;1.10;;;15.20;49.30;;;;;;2405006;52;20927;-83
2022/04/14 02:18:49;;;;;;;3.45;1.20;;;15.10;49.30;;;;;;2663423;52;20911;-83
2022/04/14 02:21:16;;;;;;;2.97;1.15;;;15.20;49.40;;;;;;2665102;52;21417;-85
2022/04/14 02:23:42;;;;;;;4.07;1.23;;;15.20;49.50;;;;;;2663473;52;20974;-84
2022/04/14 02:26:08;;;;;;;2.53;0.98;;;15.20;49.90;;;;;;2630758;52;20999;-84
2022/04/14 02:28:35;;;;;;;3.97;1.40;;;15.20;49.60;;;;;;2401975;53;21615;-84
2022/04/14 02:31:01;;;;;;;2.55;1.20;;;15.20;49.70;;;;;;2660951;52;20994;-84
2022/04/14 02:33:28;;;;;;;2.28;1.05;;;15.30;49.80;;;;;;2661228;52;20951;-85
2022/04/14 02:35:54;;;;;;;2.42;1.08;;;15.30;49.80;;;;;;2658921;52;20947;-83
2022/04/14 02:38:20;;;;;;;2.50;1.02;;;15.30;49.80;;;;;;2395218;53;20983;-83
2022/04/14 02:40:46;;;;;;;3.37;1.08;;;15.30;49.80;;;;;;2402603;52;21477;-84
2022/04/14 02:43:13;;;;;;;4.80;1.40;;;15.30;49.80;;;;;;2391307;52;20986;-84
2022/04/14 02:45:41;;;;;;;3.17;1.20;;;15.40;50.00;;;;;;2397256;53;22138;-83
2022/04/14 02:48:08;;;;;;;2.90;1.02;;;15.40;50.00;;;;;;2646419;51;21857;-83
2022/04/14 02:50:34;;;;;;;3.40;1.48;;;15.40;49.90;;;;;;2660998;51;21005;-83
2022/04/14 02:53:00;;;;;;;4.57;1.58;;;15.40;49.90;;;;;;2661056;52;21005;-83
2022/04/14 02:55:27;;;;;;;3.17;1.20;;;15.40;50.50;;;;;;2661746;52;21325;-83
2022/04/14 02:57:53;;;;;;;4.37;1.30;;;15.40;49.90;;;;;;2387541;52;20982;-83
2022/04/14 03:00:19;;;;;;;3.33;1.50;;;15.40;49.90;;;;;;2655717;51;20959;-83
2022/04/14 03:02:46;;;;;;;3.12;1.10;;;15.40;49.90;;;;;;2403838;53;21026;-84
2022/04/14 03:05:12;;;;;;;3.20;1.40;;;15.40;50.00;;;;;;2661352;52;20947;-83
2022/04/14 03:07:38;;;;;;;4.35;1.20;;;15.40;50.00;;;;;;2640559;51;20973;-83
2022/04/14 03:10:05;;;;;;;2.78;1.20;;;15.40;50.10;;;;;;2397042;52;20982;-83
2022/04/14 03:12:44;;;;;;;3.83;0.93;;;15.40;50.10;;;;;;2642094;51;21426;-84
2022/04/14 03:15:10;;;;;;;3.33;1.17;;;15.40;50.40;;;;;;2659944;51;20959;-83
2022/04/14 03:17:37;;;;;;;4.53;1.27;;;15.40;50.10;;;;;;2632695;51;20933;-83
2022/04/14 03:20:03;;;;;;;3.72;1.20;;;15.40;50.30;;;;;;2662704;52;20907;-84
2022/04/14 03:22:33;;;;;;;4.82;1.45;;;15.40;50.30;;;;;;2405621;52;20959;-84
2022/04/14 03:25:04;;;;;;;3.83;1.23;;;15.40;50.50;;;;;;2653717;51;20970;-83
2022/04/14 03:27:30;;;;;;;4.07;1.48;;;15.40;50.50;;;;;;2643184;51;20930;-83
2022/04/14 03:29:57;;;;;;;3.40;1.35;;;15.40;50.50;;;;;;2405837;52;21318;-84
2022/04/14 03:32:24;;;;;;;3.30;1.20;;;15.40;50.50;;;;;;2405747;52;20948;-84
2022/04/14 03:34:51;;;;;;;3.47;1.65;;;15.40;50.50;;;;;;2634082;51;21487;-83
2022/04/14 03:37:18;;;;;;;2.80;1.30;;;15.40;50.50;;;;;;2661545;51;20970;-83
2022/04/14 03:39:44;;;;;;;2.30;1.15;;;15.40;50.50;;;;;;2660362;52;20963;-83
2022/04/14 03:42:11;;;;;;;3.45;1.30;;;15.40;50.50;;;;;;2662881;52;20962;-83
2022/04/14 03:44:37;;;;;;;3.00;1.35;;;15.50;50.60;;;;;;2404677;53;20970;-83
2022/04/14 03:47:04;;;;;;;3.12;1.37;;;15.50;50.70;;;;;;2663214;52;20946;-84
2022/04/14 03:49:30;;;;;;;3.60;1.52;;;15.40;50.70;;;;;;2406004;52;20951;-83
2022/04/14 03:51:57;;;;;;;3.72;1.30;;;15.40;50.70;;;;;;2664924;52;20907;-84
2022/04/14 03:54:24;;;;;;;4.20;1.30;;;15.40;50.70;;;;;;2406204;52;20879;-84
2022/04/14 03:56:50;;;;;;;3.97;1.48;;;15.40;50.70;;;;;;2664077;52;20909;-82
2022/04/14 03:59:17;;;;;;;3.20;1.60;;;15.40;50.70;;;;;;2403071;52;21014;-83
2022/04/14 04:01:43;;;;;;;3.75;1.30;;;15.40;50.70;;;;;;2658861;52;21996;-83
2022/04/14 04:04:10;;;;;;;2.80;1.05;;;15.40;50.70;;;;;;2660548;52;21002;-83
2022/04/14 04:06:36;;;;;;;2.83;1.50;;;15.30;50.70;;;;;;2402969;52;20967;-83
2022/04/14 04:09:03;;;;;;;4.05;1.50;;;15.30;50.70;;;;;;2659136;52;20939;-84
2022/04/14 04:11:30;;;;;;;5.43;1.48;;;15.30;50.70;;;;;;2658829;52;21604;-82
2022/04/14 04:13:56;;;;;;;3.75;1.48;;;15.30;50.70;;;;;;2400171;52;20923;-83
2022/04/14 04:16:22;;;;;;;3.65;1.40;;;15.20;50.80;;;;;;2658169;52;20943;-83
2022/04/14 04:18:49;;;;;;;3.35;1.48;;;15.20;50.80;;;;;;2400365;52;21407;-83
2022/04/14 04:21:15;;;;;;;4.82;1.50;;;15.20;50.90;;;;;;2400702;52;20946;-83
2022/04/14 04:23:42;;;;;;;2.83;1.20;;;15.20;50.90;;;;;;2400680;52;22211;-83
2022/04/14 04:26:08;;;;;;;3.28;1.40;;;15.10;50.90;;;;;;2401009;52;20927;-83
2022/04/14 04:28:34;;;;;;;4.18;1.67;;;15.10;50.90;;;;;;2658484;52;20938;-84
2022/04/14 04:31:01;;;;;;;7.40;2.00;;;15.10;50.90;;;;;;2658503;52;20962;-83
2022/04/14 04:33:27;;;;;;;3.37;1.50;;;15.10;50.90;;;;;;2658052;52;22008;-83
2022/04/14 04:35:54;;;;;;;3.25;1.42;;;15.00;50.90;;;;;;2658239;52;20983;-83
2022/04/14 04:38:20;;;;;;;4.10;1.48;;;15.00;51.40;;;;;;2658301;52;20904;-83
2022/04/14 04:40:46;;;;;;;5.53;1.55;;;15.00;50.90;;;;;;2657550;52;20919;-84
2022/04/14 04:43:15;;;;;;;3.95;1.70;;;15.00;50.90;;;;;;2400241;53;21031;-81
2022/04/14 04:45:42;;;;;;;4.12;1.87;;;14.90;51.00;;;;;;2389698;52;20964;-84
2022/04/14 04:48:09;;;;;;;5.00;2.05;;;14.90;51.20;;;;;;2644526;51;21044;-83
2022/04/14 04:50:35;;;;;;;4.03;1.85;;;14.90;51.30;;;;;;2399434;52;21031;-83
2022/04/14 04:53:01;;;;;;;4.75;2.17;;;14.80;51.30;;;;;;2649801;51;20985;-83
2022/04/14 04:55:28;;;;;;;4.68;2.12;;;14.80;51.40;;;;;;2381590;53;20988;-84
2022/04/14 04:57:54;;;;;;;4.62;2.40;;;14.80;51.80;;;;;;2399419;52;22338;-83
2022/04/14 05:00:20;;;;;;;4.53;2.25;;;14.80;51.60;;;;;;2660760;52;20923;-84
2022/04/14 05:02:47;;;;;;;4.55;2.22;;;14.80;51.80;;;;;;2660527;52;20986;-83
2022/04/14 05:05:13;;;;;;;5.20;2.55;;;14.80;51.80;;;;;;2658982;52;20899;-83
2022/04/14 05:07:39;;;;;;;6.60;2.50;;;14.80;52.00;;;;;;2659297;52;20924;-83
2022/04/14 05:10:07;;;;;;;5.37;1.90;;;14.80;52.00;;;;;;2402879;52;21313;-82
2022/04/14 05:12:34;;;;;;;3.35;1.90;;;14.80;52.00;;;;;;2658224;52;20994;-83
2022/04/14 05:15:00;;;;;;;3.50;1.95;;;14.80;52.00;;;;;;2400240;52;20950;-82
2022/04/14 05:17:26;;;;;;;4.28;1.85;;;14.80;52.00;;;;;;2636428;51;21667;-83
2022/04/14 05:19:53;;;;;;;4.87;2.30;;;14.80;52.10;;;;;;2389024;52;20983;-83
2022/04/14 05:22:19;;;;;;;4.35;2.42;;;14.80;52.20;;;;;;2649470;51;20919;-82
2022/04/14 05:24:45;;;;;;;4.85;2.03;;;14.80;52.40;;;;;;2660208;52;21217;-82
2022/04/14 05:27:12;;;;;;;4.35;2.22;;;14.80;52.50;;;;;;2660764;52;20923;-82
2022/04/14 05:29:40;;;;;;;5.70;2.08;;;14.90;52.70;;;;;;2401959;52;20915;-82
2022/04/14 05:32:07;;;;;;;4.25;2.08;;;14.90;52.70;;;;;;2663170;52;20888;-83
2022/04/14 05:34:33;;;;;;;5.07;2.30;;;15.00;53.40;;;;;;2405718;53;20943;-83
2022/04/14 05:37:00;;;;;;;12.45;6.37;;;15.00;52.80;;;;;;2403504;52;21761;-81
2022/04/14 05:39:26;;;;;;;10.25;5.55;;;15.00;52.90;;;;;;2658868;52;20962;-81
2022/04/14 05:41:52;;;;;;;11.77;7.62;;;15.00;52.90;;;;;;2401116;53;21070;-82
2022/04/14 05:44:19;;;;;;;12.07;6.57;;;15.10;53.00;;;;;;2380873;52;20973;-82
2022/04/14 05:46:45;;;;;;;10.63;5.22;;;15.10;53.10;;;;;;2660249;52;21425;-83
2022/04/14 05:49:11;;;;;;;7.53;4.25;;;15.10;53.10;;;;;;2659424;52;20912;-81
2022/04/14 05:51:37;;;;;;;7.20;3.67;;;15.20;53.30;;;;;;2399719;52;21026;-82
2022/04/14 05:54:04;;;;;;;7.00;3.20;;;15.20;53.30;;;;;;2399438;52;20966;-83
2022/04/14 05:56:30;;;;;;;6.80;3.33;;;15.20;53.40;;;;;;2402055;53;21102;-81
2022/04/14 05:58:56;;;;;;;6.62;2.87;;;15.30;53.60;;;;;;2400816;52;20964;-82
2022/04/14 06:01:25;;;;;;;5.30;2.62;;;15.40;53.70;;;;;;2635050;51;21327;-81
2022/04/14 06:03:51;;;;;;;5.15;2.58;;;15.40;53.70;;;;;;2636810;51;21014;-82
2022/04/14 06:06:18;;;;;;;5.72;2.90;;;15.50;53.80;;;;;;2366901;53;21259;-83
2022/04/14 06:08:45;;;;;;;5.30;2.80;;;15.60;53.90;;;;;;2399625;52;21351;-83
2022/04/14 06:11:11;;;;;;;5.68;2.55;;;15.60;53.90;;;;;;2658069;52;20939;-82
2022/04/14 06:13:38;;;;;;;5.12;2.70;;;15.70;54.00;;;;;;2657658;52;21029;-83
2022/04/14 06:16:04;;;;;;;6.43;2.75;;;15.80;54.10;;;;;;2379832;52;22055;-82
2022/04/14 06:18:30;;;;;;;5.82;2.58;;;15.80;54.10;;;;;;2658083;52;20993;-82
2022/04/14 06:20:57;;;;;;;4.68;2.87;;;15.90;54.30;;;;;;2657428;52;22020;-82
2022/04/14 06:23:23;;;;;;;4.62;2.78;;;16.00;54.20;;;;;;2399311;52;21035;-82
2022/04/14 06:25:50;;;;;;;6.80;2.53;;;16.10;54.30;;;;;;2628189;52;20975;-83
2022/04/14 06:28:17;;;;;;;4.12;2.15;;;16.20;54.40;;;;;;2658395;52;22138;-83
2022/04/14 06:30:47;;;;;;;6.30;2.47;;;16.30;54.40;;;;;;2658494;52;22063;-83
2022/04/14 06:33:15;;;;;;;3.83;2.28;;;16.40;54.60;;;;;;2400119;52;20947;-83
2022/04/14 06:35:42;;;;;;;5.82;2.72;;;16.50;54.60;;;;;;2658512;52;21333;-82
2022/04/14 06:38:09;;;;;;;5.20;2.90;;;16.60;54.60;;;;;;2401580;52;20954;-82
2022/04/14 06:40:35;;;;;;;5.12;2.92;;;16.70;54.60;;;;;;2631401;51;21258;-83
2022/04/14 06:43:02;;;;;;;12.20;4.82;;;16.80;54.70;;;;;;2657457;52;21499;-83
2022/04/14 06:45:29;;;;;;;6.40;4.12;;;16.90;54.70;;;;;;2625828;51;21760;-84
2022/04/14 06:47:55;;;;;;;12.00;6.30;;;17.00;54.90;;;;;;2657769;52;20940;-84
2022/04/14 06:50:22;;;;;;;10.77;5.53;;;17.20;55.30;;;;;;2399636;53;20939;-83
2022/04/14 06:52:48;;;;;;;8.00;5.10;;;17.40;55.50;;;;;;2379360;52;20958;-84
2022/04/14 06:55:16;;;;;;;7.35;4.62;;;17.60;55.80;;;;;;2658040;52;21520;-83
2022/04/14 06:57:42;;;;;;;7.95;5.47;;;17.80;55.90;;;;;;2658007;52;21601;-83
2022/04/14 07:00:09;;;;;;;9.27;5.90;;;18.00;56.10;;;;;;2658589;52;20940;-83
2022/04/14 07:02:50;;;;;;;10.95;6.12;;;18.30;56.20;;;;;;2656654;52;21026;-82
2022/04/14 07:05:16;;;;;;;9.82;5.95;;;18.60;56.40;;;;;;2399925;52;21372;-81
2022/04/14 07:07:43;;;;;;;9.02;5.85;;;18.90;56.50;;;;;;2401573;52;20971;-81
2022/04/14 07:10:11;;;;;;;8.77;5.82;;;19.20;56.40;;;;;;2661602;52;20903;-81
2022/04/14 07:12:38;;;;;;;9.57;6.28;;;19.50;56.30;;;;;;2661031;52;20943;-81
2022/04/14 07:15:05;;;;;;;9.73;6.32;;;19.80;55.90;;;;;;2402841;53;20975;-81
2022/04/14 07:17:32;;;;;;;8.18;5.80;;;20.10;55.60;;;;;;2662781;52;20953;-81
2022/04/14 07:19:59;;;;;;;11.38;6.25;;;20.40;55.30;;;;;;2403337;52;20903;-80
2022/04/14 07:22:25;;;;;;;10.40;6.45;;;20.60;55.00;;;;;;2641222;51;20997;-81
2022/04/14 07:24:53;;;;;;;10.10;5.85;;;20.80;54.60;;;;;;2660262;51;20911;-81
2022/04/14 07:27:21;;;;;;;8.20;5.12;;;21.10;54.60;;;;;;2662011;52;20907;-82
2022/04/14 07:29:48;;;;;;;7.95;5.43;;;21.30;54.70;;;;;;2403441;53;20935;-81
2022/04/14 07:32:14;;;;;;;7.55;5.40;;;21.60;54.60;;;;;;2662269;52;20902;-82
2022/04/14 07:34:41;;;;;;;8.50;5.47;;;21.80;54.30;;;;;;2403431;52;21449;-81
2022/04/14 07:37:07;;;;;;;7.93;5.25;;;22.10;54.10;;;;;;2662446;52;20958;-81
2022/04/14 07:39:34;;;;;;;8.27;4.65;;;22.30;53.60;;;;;;2402770;53;20983;-80
2022/04/14 07:42:00;;;;;;;7.05;4.97;;;22.50;53.10;;;;;;2639492;51;20902;-81
2022/04/14 07:44:28;;;;;;;8.30;5.25;;;22.60;52.50;;;;;;2655148;51;20895;-82
2022/04/14 07:46:55;;;;;;;9.98;5.87;;;22.70;51.80;;;;;;2381744;53;22240;-82
2022/04/14 07:49:21;;;;;;;8.32;5.62;;;22.60;51.20;;;;;;2661156;52;20954;-81
2022/04/14 07:51:47;;;;;;;7.62;5.18;;;22.60;50.90;;;;;;2402393;53;21371;-83
2022/04/14 07:54:14;;;;;;;8.50;5.65;;;22.60;50.80;;;;;;2654450;51;20912;-82
2022/04/14 07:56:40;;;;;;;12.23;6.15;;;22.60;50.80;;;;;;2661097;52;20990;-84
2022/04/14 07:59:06;;;;;;;8.77;5.97;;;22.50;50.60;;;;;;2402225;52;20923;-82
2022/04/14 08:01:33;;;;;;;11.55;5.93;;;22.40;50.30;;;;;;2661955;52;21313;-82
2022/04/14 08:03:59;;;;;;;10.27;5.57;;;22.40;50.20;;;;;;2402157;52;21430;-81
2022/04/14 08:06:27;;;;;;;7.12;5.30;;;22.30;50.10;;;;;;2402101;53;21007;-81
2022/04/14 08:08:54;;;;;;;10.55;6.25;;;22.30;50.20;;;;;;2390031;52;21279;-81
2022/04/14 08:11:20;;;;;;;10.68;5.40;;;22.30;50.50;;;;;;2651281;51;20966;-83
2022/04/14 08:13:46;;;;;;;7.28;5.40;;;22.30;50.50;;;;;;2662198;52;21788;-81
2022/04/14 08:16:13;;;;;;;8.13;5.22;;;22.40;50.80;;;;;;2662364;52;20962;-82
2022/04/14 08:18:39;;;;;;;11.48;6.00;;;22.50;51.10;;;;;;2661724;52;21322;-82
2022/04/14 08:21:06;;;;;;;9.18;5.78;;;22.60;51.30;;;;;;2401728;53;20995;-81
2022/04/14 08:23:38;;;;;;;8.68;5.45;;;22.70;51.20;;;;;;2660488;52;20989;-82
2022/04/14 08:26:08;;;;;;;8.07;5.10;;;22.80;51.10;;;;;;2403821;52;20955;-82
2022/04/14 08:28:43;;;;;;;8.48;5.32;;;22.90;51.00;;;;;;2405265;52;21025;-82
2022/04/14 08:31:10;;;;;;;7.75;5.32;;;23.00;51.00;;;;;;2379610;52;21453;-82
2022/04/14 08:33:37;;;;;;;7.87;5.68;;;23.10;51.10;;;;;;2402050;52;21340;-83
2022/04/14 08:36:04;;;;;;;7.07;4.57;;;23.10;50.90;;;;;;2388019;52;21459;-82
2022/04/14 08:38:31;;;;;;;8.93;5.03;;;23.20;50.80;;;;;;2653334;51;21485;-85
2022/04/14 08:41:00;;;;;;;7.10;5.00;;;23.30;50.70;;;;;;2657871;51;20926;-83
2022/04/14 08:43:42;;;;;;;6.70;4.68;;;23.40;50.60;;;;;;2639943;51;21528;-85
2022/04/14 08:46:09;;;;;;;7.72;4.75;;;23.50;50.50;;;;;;2395185;52;21274;-86
2022/04/14 08:48:35;;;;;;;8.82;4.85;;;23.60;50.40;;;;;;2632173;51;20996;-85
2022/04/14 08:51:04;;;;;;;9.02;5.97;;;23.60;50.40;;;;;;2653220;51;21627;-87
2022/04/14 08:53:30;;;;;;;8.85;5.78;;;23.70;50.10;;;;;;2399582;52;25400;-87
2022/04/14 08:55:57;;;;;;;8.82;5.15;;;23.80;49.90;;;;;;2660373;51;20919;-85
2022/04/14 08:58:26;;;;;;;9.23;5.35;;;23.90;49.80;;;;;;2400197;52;21371;-83
2022/04/14 09:00:54;;;;;;;7.18;5.03;;;23.90;49.80;;;;;;2643014;51;20973;-84
2022/04/14 09:03:31;;;;;;;8.68;5.93;;;24.00;49.90;;;;;;2661355;52;20924;-83
2022/04/14 09:05:58;;;;;;;9.73;5.30;;;24.10;49.70;;;;;;2403598;52;21734;-87
2022/04/14 09:08:26;;;;;;;7.45;5.30;;;24.20;49.90;;;;;;2404534;52;20962;-85
2022/04/14 09:10:52;;;;;;;9.15;4.93;;;24.30;49.70;;;;;;2661607;52;21336;-86
2022/04/14 09:13:21;;;;;;;6.85;4.55;;;24.40;49.50;;;;;;2406433;52;21851;-87
2022/04/14 09:15:48;;;;;;;9.02;5.00;;;24.50;49.10;;;;;;2661611;52;20943;-87
2022/04/14 09:18:16;;;;;;;8.68;5.20;;;24.60;49.30;;;;;;2638990;51;20925;-84
2022/04/14 09:20:43;;;;;;;7.10;4.72;;;24.70;49.20;;;;;;2398819;53;20939;-85
2022/04/14 09:23:25;;;;;;;8.48;4.80;;;24.80;49.10;;;;;;2630310;51;21462;-84
2022/04/14 09:26:54;;;;;;;8.82;4.68;;;24.90;49.10;;;;;;2658029;52;21023;-83
2022/04/14 09:29:21;;;;;;;6.82;4.00;;;25.10;48.90;;;;;;2639108;51;21055;-81
2022/04/14 09:31:51;;;;;;;8.15;4.93;;;25.20;49.00;;;;;;2651298;51;20957;-83
2022/04/14 09:34:41;;;;;;;8.23;4.93;;;25.30;48.70;;;;;;2361845;53;20956;-85
2022/04/14 09:37:08;;;;;;;8.73;5.03;;;25.40;48.50;;;;;;2378899;52;21295;-85
2022/04/14 09:39:55;;;;;;;7.10;4.30;;;25.50;47.90;;;;;;2658358;52;21030;-84
2022/04/14 09:42:22;;;;;;;7.60;4.78;;;25.50;47.50;;;;;;2660164;52;20915;-84
2022/04/14 09:44:49;;;;;;;9.65;4.47;;;25.50;47.50;;;;;;2400934;52;21039;-81
2022/04/14 09:47:38;;;;;;;11.23;5.28;;;25.50;47.80;;;;;;2393569;52;20985;-81
2022/04/14 09:50:06;;;;;;;8.95;5.03;;;25.60;47.40;;;;;;2390408;53;20954;-81
2022/04/14 09:52:32;;;;;;;8.07;5.53;;;25.60;47.40;;;;;;2661024;52;20888;-80
2022/04/14 09:55:12;;;;;;;9.35;5.43;;;25.70;47.30;;;;;;2660705;52;20911;-80
2022/04/14 09:57:39;;;;;;;8.27;4.75;;;25.70;46.60;;;;;;2660441;52;21006;-81
2022/04/14 10:00:06;;;;;;;9.35;5.00;;;25.70;47.00;;;;;;2659290;52;20910;-80
2022/04/14 10:02:35;;;;;;;8.00;4.82;;;25.80;46.90;;;;;;2380197;52;20997;-81
2022/04/14 10:05:04;;;;;;;8.18;4.85;;;25.90;47.20;;;;;;2659338;52;21366;-81
2022/04/14 10:07:30;;;;;;;10.73;5.43;;;26.00;47.10;;;;;;2401034;53;20959;-82
2022/04/14 10:09:56;;;;;;;7.70;5.12;;;26.10;46.90;;;;;;2400671;53;21011;-82
2022/04/14 10:12:27;;;;;;;8.27;5.12;;;26.10;46.50;;;;;;2659190;52;21805;-82
2022/04/14 10:15:08;;;;;;;10.05;5.25;;;26.20;46.00;;;;;;2401266;52;20898;-82
2022/04/14 10:17:39;;;;;;;7.70;5.75;;;26.20;45.60;;;;;;2404757;52;20937;-82
2022/04/14 10:20:09;;;;;;;7.28;4.68;;;26.10;45.60;;;;;;2659533;52;20919;-84
2022/04/14 10:22:37;;;;;;;7.47;4.70;;;26.20;45.60;;;;;;2659428;52;20967;-81
2022/04/14 10:25:04;;;;;;;9.05;5.03;;;26.10;45.70;;;;;;2401854;53;22078;-81
2022/04/14 10:27:33;;;;;;;7.93;4.82;;;26.10;45.50;;;;;;2630773;52;20923;-82
2022/04/14 10:30:00;;;;;;;8.00;5.28;;;26.10;45.60;;;;;;2656169;52;21030;-85
2022/04/14 10:32:27;;;;;;;11.93;4.95;;;26.20;45.60;;;;;;2383581;53;20927;-81
2022/04/14 10:34:53;;;;;;;9.05;5.03;;;26.20;45.60;;;;;;2662228;52;21222;-86
2022/04/14 10:37:30;;;;;;;9.13;4.37;;;26.20;45.50;;;;;;2402859;53;20935;-82
2022/04/14 10:39:57;;;;;;;9.57;4.80;;;26.20;45.60;;;;;;2663988;52;22089;-87
2022/04/14 10:42:25;;;;;;;7.47;4.65;;;26.20;45.40;;;;;;2407173;53;20943;-86
2022/04/14 10:44:52;;;;;;;6.78;4.62;;;26.20;45.10;;;;;;2407095;52;20879;-86
2022/04/14 10:51:08;;;;;;;7.10;4.32;;;26.20;45.30;;;;;;2665048;52;20923;-87
2022/04/14 10:55:09;;;;;;;7.87;4.55;;;26.30;45.40;;;;;;2407848;53;20932;-85
2022/04/14 10:57:39;;;;;;;8.77;4.90;;;26.30;45.10;;;;;;2665606;52;21218;-87
2022/04/14 11:00:48;;;;;;;7.37;4.85;;;26.20;44.80;;;;;;2664467;52;20946;-87
2022/04/14 11:03:15;;;;;;;8.73;5.12;;;26.10;44.60;;;;;;2666572;51;20919;-87
2022/04/14 11:05:43;;;;;;;8.88;6.05;;;26.10;44.70;;;;;;2405777;52;20921;-85
2022/04/14 11:08:29;;;;;;;9.20;5.45;;;26.00;44.70;;;;;;2666042;52;22341;-86
2022/04/14 11:11:16;;;;;;;8.80;5.85;;;26.00;44.50;;;;;;2664903;52;20966;-88
2022/04/14 11:14:57;;;;;;;7.53;5.82;;;26.00;44.60;;;;;;2384440;52;21326;-84
2022/04/14 11:19:27;;;;;;;7.75;4.85;;;25.90;44.60;;;;;;2406438;52;21694;-85
2022/04/14 11:22:07;;;;;;;7.65;5.62;;;25.80;44.80;;;;;;2408062;52;20895;-86
2022/04/14 11:24:40;;;;;;;9.27;6.35;;;25.70;44.70;;;;;;2666223;52;20939;-85
2022/04/14 11:27:30;;;;;;;11.80;6.43;;;25.70;44.70;;;;;;2659891;52;21001;-79
2022/04/14 11:30:00;;;;;;;11.82;5.95;;;25.60;44.80;;;;;;2657671;52;21014;-80
2022/04/14 11:32:41;;;;;;;9.32;5.82;;;25.60;45.10;;;;;;2657316;52;21017;-80
2022/04/14 11:35:47;;;;;;;9.85;6.70;;;25.60;45.40;;;;;;2627292;52;21547;-80
2022/04/14 11:38:53;;;;;;;10.15;6.80;;;25.60;45.20;;;;;;2649679;51;20990;-80
2022/04/14 11:41:42;;;;;;;10.35;6.80;;;25.60;45.30;;;;;;2644500;51;20939;-81
2022/04/14 11:44:16;;;;;;;10.65;6.50;;;25.60;45.10;;;;;;2629114;51;21013;-80
2022/04/14 11:46:47;;;;;;;9.10;6.07;;;25.60;44.90;;;;;;2403509;52;20954;-79
2022/04/14 11:49:15;;;;;;;9.35;5.93;;;25.60;44.90;;;;;;2651450;51;21362;-79
2022/04/14 11:51:46;;;;;;;10.35;5.57;;;25.60;45.00;;;;;;2397651;52;20911;-80
2022/04/14 11:54:13;;;;;;;9.43;5.60;;;25.60;45.10;;;;;;2659687;52;21275;-80
2022/04/14 11:57:13;;;;;;;11.77;5.37;;;25.60;44.90;;;;;;2630682;51;20898;-80
2022/04/14 11:59:46;;;;;;;8.73;5.10;;;25.70;45.10;;;;;;2629783;52;20935;-80
2022/04/14 12:02:18;;;;;;;9.07;6.05;;;25.70;45.20;;;;;;2398808;52;21574;-80
2022/04/14 12:04:45;;;;;;;9.18;5.37;;;25.80;45.30;;;;;;2385289;53;21485;-81
2022/04/14 12:07:12;;;;;;;9.63;5.20;;;25.90;45.50;;;;;;2400247;52;21277;-82
2022/04/14 12:09:38;;;;;;;8.90;5.80;;;26.00;45.30;;;;;;2658957;52;20994;-80
2022/04/14 12:12:19;;;;;;;6.35;4.72;;;26.00;45.00;;;;;;2400516;52;21018;-80
2022/04/14 12:14:47;;;;;;;7.50;4.55;;;26.10;44.90;;;;;;2659186;52;20918;-81
2022/04/14 12:17:21;;;;;;;9.93;5.30;;;26.20;45.00;;;;;;2401196;52;20931;-80
2022/04/14 12:19:58;;;;;;;7.80;5.15;;;26.20;44.70;;;;;;2659740;52;20942;-80
2022/04/14 12:22:34;;;;;;;8.40;5.20;;;26.30;44.20;;;;;;2379810;52;21374;-79
2022/04/14 12:25:04;;;;;;;8.30;4.57;;;26.40;43.60;;;;;;2633014;51;20950;-80
2022/04/14 12:27:34;;;;;;;8.55;4.97;;;26.40;43.80;;;;;;2654116;51;21540;-81
2022/04/14 12:30:13;;;;;;;7.22;4.85;;;26.40;44.00;;;;;;2656381;52;20930;-81
2022/04/14 12:32:43;;;;;;;7.57;4.83;;;26.40;43.90;;;;;;2398738;52;21045;-80
2022/04/14 12:35:10;;;;;;;8.45;5.62;;;26.50;44.00;;;;;;2642258;51;20995;-81
2022/04/14 12:37:38;;;;;;;8.38;5.25;;;26.50;43.80;;;;;;2653813;51;20943;-80
2022/04/14 12:40:17;;;;;;;10.38;5.85;;;26.50;43.60;;;;;;2659866;52;20931;-80
2022/04/14 12:42:44;;;;;;;9.90;5.05;;;26.60;43.20;;;;;;2382936;53;21018;-80
2022/04/14 12:45:14;;;;;;;8.35;5.10;;;26.60;43.20;;;;;;2381847;53;20917;-80
2022/04/14 12:47:42;;;;;;;7.35;5.47;;;26.60;42.90;;;;;;2657012;51;20935;-80
2022/04/14 12:50:08;;;;;;;9.63;5.12;;;26.60;43.00;;;;;;2659535;52;20900;-80
2022/04/14 12:52:35;;;;;;;9.95;5.78;;;26.50;42.50;;;;;;2659325;52;20954;-80
2022/04/14 12:55:01;;;;;;;7.60;5.30;;;26.50;42.10;;;;;;2660077;52;20914;-79
2022/04/14 12:57:29;;;;;;;8.05;5.37;;;26.50;42.20;;;;;;2657716;52;20932;-79
2022/04/14 13:00:14;;;;;;;8.48;5.15;;;26.50;42.20;;;;;;2659440;52;20974;-78
2022/04/14 13:02:41;;;;;;;9.15;5.00;;;26.40;41.90;;;;;;2657345;52;21146;-79